NOTL Irvine Rd

*Note: All times are displayed in the local standard time of the station location.
**Rain - Equipment is designed to accurately record liquid precipitation; under conditions when precipitation is not in liquid form, the data displayed may not properly reflect rainfall values.

Date Max Temp
(°C)
Min Temp
(°C)
Avg Temp
(°C)
Rain (mm) Avg RH (%)
Fri, Dec 14, 2018 6.3 0.9 3.6 2.2 83.0
Thu, Dec 13, 2018 5.6 -2.8 0.6 0.8 89.9
Wed, Dec 12, 2018 1.5 -4.2 -0.6 0.0 82.4
Tue, Dec 11, 2018 0.1 -1.8 -1.0 0.0 78.8
Mon, Dec 10, 2018 1.1 -2.1 -0.6 0.0 77.8
Sun, Dec 09, 2018 0.8 -7.0 -2.2 0.0 70.9
Sat, Dec 08, 2018 -0.2 -5.7 -3.0 0.0 72.2
DateTime Avg Temp (°C) Rain (mm) RH (%)
Sat, Dec 15, 2018 18:00 2.7 0.0 86.1
Sat, Dec 15, 2018 17:00 2.9 0.0 83.9
Sat, Dec 15, 2018 16:00 3.3 0.0 82.2
Sat, Dec 15, 2018 15:00 3.5 0.0 81.7
Sat, Dec 15, 2018 14:00 3.7 0.0 80.9
Sat, Dec 15, 2018 13:00 4.0 0.0 79.2
Sat, Dec 15, 2018 12:00 3.8 0.0 81.9
Sat, Dec 15, 2018 11:00 3.2 0.0 88.6
Sat, Dec 15, 2018 10:00 2.0 0.0 99.1
Sat, Dec 15, 2018 09:00 0.8 0.0 99.9
Sat, Dec 15, 2018 08:00 0.8 0.0 99.9
Sat, Dec 15, 2018 07:00 1.3 0.0 99.9
Sat, Dec 15, 2018 06:00 1.5 0.0 99.9
Sat, Dec 15, 2018 05:00 0.0 0.0 99.4
Sat, Dec 15, 2018 04:00 0.3 0.0 97.1
Sat, Dec 15, 2018 03:00 1.5 0.0 94.3
Sat, Dec 15, 2018 02:00 2.7 0.0 90.3
Sat, Dec 15, 2018 01:00 3.3 0.0 88.6
Sat, Dec 15, 2018 00:00 4.5 0.0 83.7
Fri, Dec 14, 2018 23:00 4.8 0.0 81.0
Fri, Dec 14, 2018 22:00 4.2 0.0 84.1
Fri, Dec 14, 2018 21:00 3.9 0.0 87.6
Fri, Dec 14, 2018 20:00 3.5 0.0 91.1
Fri, Dec 14, 2018 19:00 3.0 0.0 86.8
Fri, Dec 14, 2018 18:00 3.4 0.0 79.9
Fri, Dec 14, 2018 17:00 5.6 0.0 71.7
Fri, Dec 14, 2018 16:00 6.0 0.0 74.3
Fri, Dec 14, 2018 15:00 5.4 0.0 82.5
Fri, Dec 14, 2018 14:00 5.2 0.0 83.8
Fri, Dec 14, 2018 13:00 4.5 0.0 85.5
Fri, Dec 14, 2018 12:00 3.9 0.4 89.8
Fri, Dec 14, 2018 11:00 3.7 1.4 88.1
Fri, Dec 14, 2018 10:00 4.1 0.4 79.3
Fri, Dec 14, 2018 09:00 3.6 0.0 80.9
Fri, Dec 14, 2018 08:00 3.2 0.0 81.7
Fri, Dec 14, 2018 07:00 2.8 0.0 81.1
Fri, Dec 14, 2018 06:00 2.4 0.0 81.1
Fri, Dec 14, 2018 05:00 2.2 0.0 80.8
Fri, Dec 14, 2018 04:00 1.7 0.0 82.6
Fri, Dec 14, 2018 03:00 1.1 0.0 85.2
Fri, Dec 14, 2018 02:00 1.6 0.0 84.1
Fri, Dec 14, 2018 01:00 1.5 0.0 85.0
Fri, Dec 14, 2018 00:00 1.0 0.0 86.1
Thu, Dec 13, 2018 23:00 0.5 0.0 90.0
Thu, Dec 13, 2018 22:00 0.0 0.0 92.4
Thu, Dec 13, 2018 21:00 0.9 0.0 89.3
Thu, Dec 13, 2018 20:00 1.6 0.0 86.9
Thu, Dec 13, 2018 19:00 1.6 0.0 87.7


asterix Register now to access more data! asterix